Time;durP1;ratioP1;P1;durP2;ratioP2;P2;SDS_P1;SDS_P2;PMS_P1;PMS_P2;Temp;Humidity;BMP_temperature;BMP_pressure;BME280_temperature;BME280_humidity;BME280_pressure;Samples;Min_cycle;Max_cycle;Signal;HPM_P1;HPM_P2
2024/04/21 00:01:20;;;;;;;2.40;0.95;;;;;;;1.71;100.00;97484.03;5373214;26;20743;-62
2024/04/21 00:03:47;;;;;;;1.33;0.80;;;;;;;1.69;100.00;97480.72;5361429;26;20005;-62
2024/04/21 00:06:15;;;;;;;2.20;1.10;;;;;;;1.66;100.00;97476.59;5393031;26;20778;-62
2024/04/21 00:08:41;;;;;;;1.92;0.90;;;;;;;1.68;100.00;97471.91;5384575;26;20443;-62
2024/04/21 00:11:08;;;;;;;2.60;1.30;;;;;;;1.73;100.00;97467.81;5381042;26;20007;-62
2024/04/21 00:13:35;;;;;;;2.78;1.17;;;;;;;1.69;100.00;97470.88;5370799;26;20082;-62
2024/04/21 00:16:02;;;;;;;1.52;1.02;;;;;;;1.78;100.00;97462.72;5388224;26;20008;-62
2024/04/21 00:18:30;;;;;;;2.38;1.05;;;;;;;1.86;100.00;97470.59;5385097;26;20023;-62
2024/04/21 00:20:56;;;;;;;2.10;0.93;;;;;;;1.95;100.00;97461.41;5382994;26;20019;-62
2024/04/21 00:23:23;;;;;;;2.25;0.90;;;;;;;2.00;100.00;97462.69;5364386;26;20004;-62
2024/04/21 00:25:59;;;;;;;2.10;0.70;;;;;;;1.96;100.00;97456.91;5387541;26;20013;-62
2024/04/21 00:28:29;;;;;;;2.17;1.48;;;;;;;2.03;100.00;97451.63;5376440;26;20026;-62
2024/04/21 00:30:56;;;;;;;1.40;0.73;;;;;;;2.14;100.00;97448.38;5405395;26;20000;-62
2024/04/21 00:33:23;;;;;;;1.63;0.80;;;;;;;2.18;100.00;97456.84;5377401;26;20016;-62
2024/04/21 00:35:49;;;;;;;1.17;0.60;;;;;;;2.12;100.00;97452.28;5386498;26;20671;-62
2024/04/21 00:38:16;;;;;;;1.48;0.80;;;;;;;2.12;100.00;97452.28;5388175;26;20019;-62
2024/04/21 00:40:43;;;;;;;0.85;0.65;;;;;;;2.03;100.00;97441.75;5385647;26;20004;-62
2024/04/21 00:43:10;;;;;;;0.82;0.60;;;;;;;2.00;100.00;97441.31;5375827;26;20007;-62
2024/04/21 00:45:41;;;;;;;2.22;0.80;;;;;;;2.02;100.00;97444.59;5380694;26;20014;-62
2024/04/21 00:48:09;;;;;;;1.15;0.80;;;;;;;1.95;100.00;97442.72;5387349;26;20000;-62
2024/04/21 00:50:39;;;;;;;1.75;0.77;;;;;;;1.94;100.00;97438.41;5367492;26;20079;-62
2024/04/21 00:53:09;;;;;;;2.00;0.80;;;;;;;1.97;100.00;97441.69;5386242;26;20189;-62
2024/04/21 00:55:37;;;;;;;0.80;0.50;;;;;;;2.10;100.00;97440.97;5373994;26;20481;-62
2024/04/21 00:58:06;;;;;;;0.88;0.60;;;;;;;2.08;100.00;97439.34;5374977;26;20011;-62
2024/04/21 01:00:32;;;;;;;0.63;0.60;;;;;;;2.06;100.00;97437.84;5369457;26;20015;-62
2024/04/21 01:02:59;;;;;;;1.08;0.60;;;;;;;2.10;100.00;97432.97;5374658;26;20011;-62
2024/04/21 01:05:26;;;;;;;0.65;0.45;;;;;;;2.12;100.00;97429.06;5373206;26;20008;-62
2024/04/21 01:07:52;;;;;;;0.93;0.43;;;;;;;2.19;100.00;97416.59;5372529;26;20012;-62
2024/04/21 01:10:19;;;;;;;0.47;0.32;;;;;;;2.36;100.00;97413.56;5381960;26;20032;-62
2024/04/21 01:12:46;;;;;;;0.80;0.50;;;;;;;2.46;100.00;97405.19;5367896;26;20011;-62
2024/04/21 01:15:13;;;;;;;0.30;0.30;;;;;;;2.38;100.00;97403.53;5353111;26;19996;-62
2024/04/21 01:17:39;;;;;;;1.17;0.60;;;;;;;2.36;100.00;97405.53;5376222;26;20000;-62
2024/04/21 01:20:10;;;;;;;0.47;0.40;;;;;;;2.35;100.00;97401.22;5376985;26;20020;-62
2024/04/21 01:22:46;;;;;;;0.70;0.40;;;;;;;2.26;100.00;97402.44;5376126;26;20009;-62
2024/04/21 01:25:14;;;;;;;0.77;0.50;;;;;;;2.35;100.00;97393.22;5359408;26;20052;-62
2024/04/21 01:27:41;;;;;;;1.13;0.50;;;;;;;2.37;100.00;97396.53;5370767;26;20004;-63
2024/04/21 01:30:08;;;;;;;0.95;0.50;;;;;;;2.53;100.00;97395.34;5375335;26;20001;-62
2024/04/21 01:32:35;;;;;;;0.75;0.50;;;;;;;2.59;100.00;97388.41;5369199;26;20020;-62
2024/04/21 01:35:02;;;;;;;0.40;0.40;;;;;;;2.62;100.00;97390.69;5376219;26;20010;-62
2024/04/21 01:37:28;;;;;;;1.92;0.50;;;;;;;2.66;100.00;97383.06;5380957;26;20000;-62
2024/04/21 01:39:55;;;;;;;0.70;0.43;;;;;;;2.73;100.00;97384.72;5375629;26;20080;-62
2024/04/21 01:42:22;;;;;;;0.57;0.40;;;;;;;2.82;100.00;97382.72;5371599;26;20012;-62
2024/04/21 01:44:49;;;;;;;0.68;0.40;;;;;;;2.84;100.00;97383.31;5385322;26;20004;-62
2024/04/21 01:47:15;;;;;;;1.58;0.80;;;;;;;2.70;100.00;97377.09;5370305;26;20004;-62
2024/04/21 01:49:44;;;;;;;2.28;0.65;;;;;;;2.82;100.00;97387.22;5382101;26;20023;-62
2024/04/21 01:52:11;;;;;;;1.20;0.82;;;;;;;2.89;100.00;97379.22;5375537;26;20000;-62
2024/04/21 01:54:37;;;;;;;2.55;1.13;;;;;;;2.89;100.00;97376.53;5372210;26;20008;-62
2024/04/21 01:57:04;;;;;;;3.10;1.00;;;;;;;2.89;100.00;97369.34;5370086;26;20004;-62
2024/04/21 01:59:31;;;;;;;2.72;1.25;;;;;;;2.81;100.00;97361.50;5388708;26;20006;-62
2024/04/21 02:01:58;;;;;;;2.92;1.27;;;;;;;2.73;100.00;97360.66;5381007;26;20004;-62
2024/04/21 02:04:24;;;;;;;3.03;1.35;;;;;;;2.75;100.00;97363.13;5370607;26;20018;-62
2024/04/21 02:06:51;;;;;;;5.03;1.50;;;;;;;2.78;100.00;97352.03;5382853;26;20023;-62
2024/04/21 02:09:18;;;;;;;2.25;1.30;;;;;;;2.74;100.00;97358.81;5379796;26;20349;-62
2024/04/21 02:11:45;;;;;;;2.10;1.20;;;;;;;2.83;100.00;97360.28;5370073;26;20001;-62
2024/04/21 02:14:11;;;;;;;5.15;1.80;;;;;;;2.79;100.00;97361.72;5364889;26;20055;-62
2024/04/21 02:16:38;;;;;;;5.15;1.45;;;;;;;2.79;100.00;97355.53;5373681;26;20767;-63
2024/04/21 02:19:08;;;;;;;2.88;1.75;;;;;;;2.86;100.00;97345.69;5373163;26;20004;-62
2024/04/21 02:21:35;;;;;;;5.10;2.20;;;;;;;2.79;100.00;97350.19;5382687;26;20023;-62
2024/04/21 02:24:02;;;;;;;4.78;2.22;;;;;;;2.69;100.00;97334.56;5373225;26;20012;-62
2024/04/21 02:26:29;;;;;;;5.72;2.35;;;;;;;2.67;100.00;97333.91;5384851;26;20036;-62
2024/04/21 02:28:55;;;;;;;6.15;2.78;;;;;;;2.58;100.00;97334.09;5372551;26;20028;-62
2024/04/21 02:31:22;;;;;;;4.80;2.90;;;;;;;2.49;100.00;97340.66;5370692;26;19996;-62
2024/04/21 02:33:49;;;;;;;6.32;3.33;;;;;;;2.61;100.00;97338.22;5367196;26;20036;-62
2024/04/21 02:36:16;;;;;;;7.47;4.00;;;;;;;2.50;100.00;97341.50;5383080;26;20810;-62
2024/04/21 02:38:43;;;;;;;5.45;3.75;;;;;;;2.49;100.00;97345.16;5371346;26;20012;-63
2024/04/21 02:41:10;;;;;;;7.43;3.90;;;;;;;2.45;100.00;97337.56;5375719;26;20019;-63
2024/04/21 02:43:36;;;;;;;9.73;4.90;;;;;;;2.52;100.00;97336.75;5380421;26;20014;-62
2024/04/21 02:46:04;;;;;;;10.60;5.32;;;;;;;2.42;100.00;97326.44;5380589;26;20009;-63
2024/04/21 02:48:32;;;;;;;9.07;5.13;;;;;;;2.34;100.00;97322.09;5381520;26;20884;-63
2024/04/21 02:51:00;;;;;;;7.95;4.93;;;;;;;2.31;100.00;97334.00;5371031;26;20070;-62
2024/04/21 02:53:26;;;;;;;9.63;6.65;;;;;;;2.26;100.00;97320.44;5379005;26;20016;-62
2024/04/21 02:55:53;;;;;;;7.07;4.03;;;;;;;2.05;100.00;97332.03;5391249;26;20488;-62
2024/04/21 02:58:19;;;;;;;5.35;3.50;;;;;;;1.82;100.00;97322.47;5386619;26;20018;-62
2024/04/21 03:00:46;;;;;;;5.97;3.67;;;;;;;1.74;100.00;97318.13;5371914;26;20016;-62
2024/04/21 03:03:13;;;;;;;6.18;3.40;;;;;;;1.62;100.00;97323.19;5370038;26;20038;-62
2024/04/21 03:05:40;;;;;;;5.43;3.60;;;;;;;1.47;100.00;97312.59;5384936;26;20081;-62
2024/04/21 03:08:06;;;;;;;5.18;3.35;;;;;;;1.32;100.00;97312.72;5378500;26;20070;-62
2024/04/21 03:10:33;;;;;;;5.28;3.70;;;;;;;1.33;100.00;97311.72;5386429;26;20008;-62
2024/04/21 03:12:59;;;;;;;6.00;3.53;;;;;;;1.27;100.00;97310.63;5373270;26;20112;-62
2024/04/21 03:15:26;;;;;;;7.82;3.97;;;;;;;1.34;100.00;97317.84;5375717;26;20744;-62
2024/04/21 03:17:53;;;;;;;6.68;4.25;;;;;;;1.46;100.00;97310.97;5393312;26;19996;-62
2024/04/21 03:20:20;;;;;;;6.40;3.90;;;;;;;1.38;100.00;97322.63;5371804;26;20015;-62
2024/04/21 03:22:46;;;;;;;7.65;3.55;;;;;;;1.37;100.00;97322.81;5368155;26;20411;-62
2024/04/21 03:25:13;;;;;;;5.60;3.75;;;;;;;1.35;100.00;97325.66;5366988;26;20014;-62
2024/04/21 03:27:40;;;;;;;7.22;4.40;;;;;;;1.30;100.00;97322.75;5375457;26;20001;-62
2024/04/21 03:30:07;;;;;;;6.53;4.18;;;;;;;1.27;100.00;97320.47;5388195;26;20397;-62
2024/04/21 03:32:33;;;;;;;6.00;4.25;;;;;;;1.30;100.00;97323.56;5370786;26;20012;-62
2024/04/21 03:35:00;;;;;;;6.28;3.75;;;;;;;1.25;100.00;97325.19;5383615;26;20008;-62
2024/04/21 03:37:27;;;;;;;7.70;4.93;;;;;;;1.32;100.00;97328.72;5387573;26;20000;-62
2024/04/21 03:39:53;;;;;;;5.55;3.90;;;;;;;1.33;100.00;97324.22;5380068;26;20052;-62
2024/04/21 03:42:20;;;;;;;6.65;4.65;;;;;;;1.38;100.00;97330.63;5377699;26;20012;-62
2024/04/21 03:44:46;;;;;;;6.80;4.38;;;;;;;1.36;100.00;97332.66;5371453;26;20276;-62
2024/04/21 03:47:13;;;;;;;7.22;4.63;;;;;;;1.46;100.00;97331.47;5334533;26;20636;-62
2024/04/21 03:49:40;;;;;;;7.68;4.50;;;;;;;1.46;100.00;97324.31;5375423;26;20077;-62
2024/04/21 03:52:06;;;;;;;7.68;3.78;;;;;;;1.44;100.00;97329.03;5387367;26;20004;-62
2024/04/21 03:54:33;;;;;;;7.03;4.55;;;;;;;1.42;100.00;97321.22;5395937;26;20004;-62
2024/04/21 03:57:04;;;;;;;5.70;3.58;;;;;;;1.43;100.00;97328.19;5383307;26;20015;-62
2024/04/21 03:59:32;;;;;;;7.18;3.63;;;;;;;1.51;100.00;97318.41;5375094;26;20015;-62
2024/04/21 04:02:00;;;;;;;7.90;4.13;;;;;;;1.53;100.00;97321.69;5382045;26;20008;-64
2024/04/21 04:04:26;;;;;;;7.20;4.72;;;;;;;1.54;100.00;97344.69;5354195;26;20351;-62
2024/04/21 04:06:53;;;;;;;6.50;3.70;;;;;;;1.54;100.00;97356.19;5402533;26;20076;-62
2024/04/21 04:09:20;;;;;;;4.82;3.00;;;;;;;1.24;100.00;97350.19;5384082;26;20013;-62
2024/04/21 04:11:46;;;;;;;3.83;2.17;;;;;;;1.05;100.00;97333.84;5390176;26;20042;-62
2024/04/21 04:14:14;;;;;;;4.22;1.88;;;;;;;0.99;100.00;97335.44;5390770;26;20052;-62
2024/04/21 04:16:41;;;;;;;6.00;1.55;;;;;;;0.87;100.00;97313.78;5376844;26;20492;-62
2024/04/21 04:19:08;;;;;;;6.03;2.22;;;;;;;0.83;100.00;97317.84;5371341;26;20070;-63
2024/04/21 04:21:35;;;;;;;2.95;1.55;;;;;;;0.94;100.00;97323.69;5396754;26;20008;-62
2024/04/21 04:24:02;;;;;;;4.22;1.70;;;;;;;0.93;100.00;97316.69;5399381;26;20054;-62
2024/04/21 04:26:29;;;;;;;6.25;2.28;;;;;;;0.86;100.00;97311.31;5373044;26;20024;-62
2024/04/21 04:28:55;;;;;;;9.57;2.00;;;;;;;0.83;100.00;97317.84;5388218;26;20035;-62
2024/04/21 04:31:22;;;;;;;4.57;2.03;;;;;;;0.99;100.00;97327.44;5378308;26;20003;-62
2024/04/21 04:33:49;;;;;;;5.30;2.60;;;;;;;1.04;100.00;97337.53;5382712;26;20000;-63
2024/04/21 04:36:16;;;;;;;5.80;1.95;;;;;;;1.09;100.00;97348.44;5385123;26;20053;-62
2024/04/21 04:38:43;;;;;;;7.00;2.38;;;;;;;1.07;100.00;97336.31;5387471;26;20019;-62
2024/04/21 04:41:09;;;;;;;6.00;2.72;;;;;;;1.12;100.00;97345.41;5376617;26;20012;-62
2024/04/21 04:43:36;;;;;;;6.40;2.70;;;;;;;1.19;100.00;97357.94;5373100;26;20370;-61
2024/04/21 04:46:04;;;;;;;9.38;3.05;;;;;;;1.12;100.00;97350.72;5370197;26;20044;-62
2024/04/21 04:48:30;;;;;;;8.07;2.83;;;;;;;1.11;100.00;97335.72;5378801;26;20540;-62
2024/04/21 04:51:00;;;;;;;9.80;2.80;;;;;;;1.10;100.00;97334.09;5379802;26;20004;-62
2024/04/21 04:53:27;;;;;;;6.20;2.38;;;;;;;1.22;100.00;97357.56;5378854;26;20472;-62
2024/04/21 04:55:54;;;;;;;6.68;2.20;;;;;;;1.11;100.00;97349.06;5374645;26;20011;-62
2024/04/21 04:58:20;;;;;;;8.43;2.38;;;;;;;1.25;100.00;97347.34;5378366;26;20000;-62
2024/04/21 05:00:47;;;;;;;9.75;2.10;;;;;;;1.23;100.00;97341.38;5378272;26;20004;-63
2024/04/21 05:03:14;;;;;;;5.22;1.80;;;;;;;1.43;100.00;97348.69;5380156;26;20277;-48
2024/04/21 05:05:40;;;;;;;3.75;1.38;;;;;;;1.40;100.00;97333.09;5362498;26;20012;-53
2024/04/21 05:08:07;;;;;;;5.50;1.58;;;;;;;1.20;100.00;97330.25;5366506;26;20000;-52
2024/04/21 05:10:34;;;;;;;5.82;1.20;;;;;;;1.35;100.00;97335.50;5362799;26;20000;-49
2024/04/21 05:13:01;;;;;;;3.80;1.23;;;;;;;1.22;100.00;97325.56;5371444;26;20036;-51
2024/04/21 05:15:28;;;;;;;7.60;1.95;;;;;;;1.22;100.00;97326.38;5360414;26;20058;-47
2024/04/21 05:17:54;;;;;;;4.95;1.40;;;;;;;1.19;100.00;97328.63;5364710;26;20012;-48
2024/04/21 05:20:22;;;;;;;5.72;1.88;;;;;;;1.35;100.00;97325.66;5376144;26;20015;-63
2024/04/21 05:22:48;;;;;;;8.23;2.35;;;;;;;1.37;100.00;97330.81;5381753;26;20360;-63
2024/04/21 05:25:15;;;;;;;6.82;1.73;;;;;;;1.27;100.00;97313.31;5371378;26;20007;-63
2024/04/21 05:27:42;;;;;;;2.75;1.48;;;;;;;1.33;100.00;97316.22;5380866;26;20000;-63
2024/04/21 05:30:09;;;;;;;5.28;1.52;;;;;;;1.25;100.00;97314.53;5389479;26;20003;-63
2024/04/21 05:32:36;;;;;;;8.32;2.03;;;;;;;1.29;100.00;97326.47;5369464;26;20004;-63
2024/04/21 05:35:03;;;;;;;5.95;1.88;;;;;;;1.24;100.00;97324.34;5377043;26;20012;-63
2024/04/21 05:37:29;;;;;;;5.05;1.90;;;;;;;1.21;100.00;97314.06;5377343;26;20429;-63
2024/04/21 05:39:56;;;;;;;12.15;2.45;;;;;;;1.15;100.00;97315.66;5342948;26;20011;-63
2024/04/21 05:42:23;;;;;;;5.32;1.83;;;;;;;1.16;100.00;97320.00;5377863;26;20003;-62
2024/04/21 05:44:49;;;;;;;5.05;1.75;;;;;;;1.17;100.00;97310.97;5368929;26;20014;-62
2024/04/21 05:47:18;;;;;;;9.88;2.08;;;;;;;1.17;100.00;97308.31;5368279;26;20475;-62
2024/04/21 05:49:45;;;;;;;4.13;1.40;;;;;;;1.34;100.00;97323.19;5378595;26;20067;-63
2024/04/21 05:52:14;;;;;;;7.85;1.75;;;;;;;1.35;100.00;97324.84;5393949;26;20003;-63
2024/04/21 05:54:41;;;;;;;5.00;1.38;;;;;;;1.22;100.00;97318.38;5372194;26;20013;-62
2024/04/21 05:57:07;;;;;;;4.72;1.70;;;;;;;1.25;100.00;97320.66;5374888;26;20092;-62
2024/04/21 05:59:34;;;;;;;7.82;2.00;;;;;;;1.29;100.00;97313.13;5370787;26;20000;-62
2024/04/21 06:02:01;;;;;;;15.82;10.00;;;;;;;1.34;100.00;97318.69;5369108;26;20036;-62
2024/04/21 06:04:30;;;;;;;15.80;5.70;;;;;;;1.41;100.00;97321.41;5385339;26;20013;-62
2024/04/21 06:07:00;;;;;;;9.75;4.00;;;;;;;1.63;100.00;97322.19;5370906;26;20010;-62
2024/04/21 06:09:27;;;;;;;29.23;14.70;;;;;;;1.67;100.00;97312.72;5376431;26;20085;-62
2024/04/21 06:11:54;;;;;;;9.63;4.32;;;;;;;1.72;100.00;97316.66;5371783;26;20785;-62
2024/04/21 06:14:21;;;;;;;29.02;15.60;;;;;;;1.72;100.00;97308.66;5364997;26;20004;-62
2024/04/21 06:16:47;;;;;;;9.10;2.50;;;;;;;1.85;100.00;97322.09;5371077;26;20009;-62
2024/04/21 06:19:14;;;;;;;10.25;4.82;;;;;;;1.80;100.00;97312.00;5391156;26;20422;-62
2024/04/21 06:21:41;;;;;;;12.70;3.35;;;;;;;1.83;100.00;97310.78;5367052;26;20031;-62
2024/04/21 06:24:07;;;;;;;6.70;2.25;;;;;;;1.96;100.00;97302.03;5378597;26;20608;-62
2024/04/21 06:26:34;;;;;;;7.18;2.67;;;;;;;2.07;100.00;97301.44;5365644;26;20101;-62
2024/04/21 06:29:00;;;;;;;9.10;2.20;;;;;;;2.12;100.00;97303.53;5370099;26;20069;-63
2024/04/21 06:31:27;;;;;;;8.75;3.25;;;;;;;2.25;100.00;97308.06;5372969;26;20011;-62
2024/04/21 06:33:54;;;;;;;10.35;2.88;;;;;;;2.23;100.00;97314.66;5381724;26;20138;-62
2024/04/21 06:36:20;;;;;;;5.05;1.85;;;;;;;2.47;100.00;97316.00;5373145;26;20040;-63
2024/04/21 06:38:47;;;;;;;6.45;2.00;;;;;;;2.50;100.00;97310.22;5396294;26;20012;-63
2024/04/21 06:41:14;;;;;;;9.98;2.25;;;;;;;2.84;100.00;97311.09;5401390;26;19995;-62
2024/04/21 06:43:40;;;;;;;4.45;1.67;;;;;;;2.73;100.00;97314.41;5382098;26;20003;-62
2024/04/21 06:46:07;;;;;;;8.43;2.25;;;;;;;2.51;100.00;97314.53;5383062;26;20008;-63
2024/04/21 06:48:34;;;;;;;6.63;1.80;;;;;;;2.64;100.00;97315.59;5388659;26;20028;-63
2024/04/21 06:51:01;;;;;;;7.40;1.98;;;;;;;2.64;100.00;97308.41;5380005;26;20012;-62
2024/04/21 06:53:29;;;;;;;6.07;1.90;;;;;;;2.65;100.00;97307.38;5369879;26;20020;-61
2024/04/21 06:56:01;;;;;;;8.32;2.20;;;;;;;2.64;100.00;97308.41;5374226;26;20012;-62
2024/04/21 06:58:27;;;;;;;9.25;2.30;;;;;;;2.55;100.00;97306.94;5376651;26;20517;-62
2024/04/21 07:00:54;;;;;;;7.35;2.13;;;;;;;2.79;100.00;97308.22;5348458;26;20003;-61
2024/04/21 07:03:21;;;;;;;5.13;2.00;;;;;;;3.16;100.00;97307.03;5394631;26;20019;-62
2024/04/21 07:05:47;;;;;;;9.52;2.25;;;;;;;3.25;100.00;97311.97;5386836;26;20019;-62
2024/04/21 07:08:14;;;;;;;5.28;1.90;;;;;;;3.14;100.00;97311.75;5377026;26;20337;-62
2024/04/21 07:10:42;;;;;;;5.15;1.80;;;;;;;3.17;100.00;97311.34;5378615;26;20000;-62
2024/04/21 07:13:08;;;;;;;7.38;2.67;;;;;;;3.12;100.00;97314.63;5381401;26;20029;-62
2024/04/21 07:15:37;;;;;;;7.47;2.40;;;;;;;2.94;100.00;97313.38;5375362;26;20500;-62
2024/04/21 07:18:04;;;;;;;3.97;1.95;;;;;;;2.97;100.00;97307.66;5393042;26;20015;-62
2024/04/21 07:20:30;;;;;;;8.93;2.40;;;;;;;3.07;100.00;97306.41;5367102;26;20008;-61
2024/04/21 07:22:57;;;;;;;8.07;2.17;;;;;;;2.83;100.00;97303.28;5368372;26;20083;-62
2024/04/21 07:25:24;;;;;;;4.95;2.25;;;;;;;2.96;100.00;97311.34;5378108;26;20073;-62
2024/04/21 07:27:52;;;;;;;7.03;2.20;;;;;;;2.87;100.00;97304.53;5369618;26;20063;-62
2024/04/21 07:30:19;;;;;;;5.75;2.30;;;;;;;3.06;100.00;97307.44;5369130;26;20001;-61
2024/04/21 07:32:46;;;;;;;10.65;2.42;;;;;;;3.02;100.00;97308.88;5378521;26;20472;-61
2024/04/21 07:35:12;;;;;;;10.00;2.80;;;;;;;3.01;100.00;97312.56;5365910;26;20019;-62
2024/04/21 07:37:39;;;;;;;8.13;2.70;;;;;;;3.12;100.00;97312.78;5383642;26;20031;-61
2024/04/21 07:40:06;;;;;;;70.45;30.08;;;;;;;3.07;100.00;97312.59;5378233;26;20070;-62
2024/04/21 07:42:33;;;;;;;9.48;2.85;;;;;;;3.22;100.00;97311.56;5365123;26;20004;-62
2024/04/21 07:45:00;;;;;;;8.38;4.38;;;;;;;3.47;100.00;97318.97;5371755;26;20083;-62
2024/04/21 07:47:26;;;;;;;13.35;5.90;;;;;;;3.44;100.00;97317.53;5378984;26;20010;-62
2024/04/21 07:49:53;;;;;;;7.53;3.08;;;;;;;3.44;100.00;97322.03;5377002;26;20814;-62
2024/04/21 07:52:20;;;;;;;12.52;5.30;;;;;;;3.35;100.00;97324.09;5370688;26;20507;-62
2024/04/21 07:54:46;;;;;;;9.70;1.98;;;;;;;3.41;100.00;97315.25;5370930;26;20487;-62
2024/04/21 07:57:13;;;;;;;8.02;2.28;;;;;;;3.46;100.00;97318.13;5375039;26;20086;-62
2024/04/21 07:59:43;;;;;;;13.57;2.45;;;;;;;3.41;100.00;97320.59;5383330;26;20000;-62
2024/04/21 08:02:10;;;;;;;5.38;1.70;;;;;;;3.56;100.00;97322.22;5393768;26;20008;-62
2024/04/21 08:04:36;;;;;;;10.38;1.90;;;;;;;3.70;100.00;97321.19;5383585;26;20000;-62
2024/04/21 08:07:03;;;;;;;8.82;1.67;;;;;;;3.68;100.00;97317.09;5377494;26;20051;-62
2024/04/21 08:09:30;;;;;;;6.30;1.58;;;;;;;3.41;100.00;97317.09;5376437;26;20012;-62
2024/04/21 08:11:57;;;;;;;8.02;1.85;;;;;;;3.73;100.00;97317.28;5377940;26;20047;-62
2024/04/21 08:14:24;;;;;;;5.22;1.33;;;;;;;3.83;100.00;97320.34;5374298;26;20024;-62
2024/04/21 08:16:51;;;;;;;9.65;1.65;;;;;;;3.85;100.00;97320.97;5385674;26;20008;-62
2024/04/21 08:19:17;;;;;;;5.47;1.50;;;;;;;4.07;100.00;97322.53;5375079;26;20008;-62
2024/04/21 08:21:46;;;;;;;6.57;1.80;;;;;;;3.79;100.00;97321.78;5372215;26;20407;-62
2024/04/21 08:24:12;;;;;;;6.82;1.65;;;;;;;3.57;100.00;97334.59;5374896;26;20024;-62
2024/04/21 08:26:39;;;;;;;4.75;1.40;;;;;;;3.51;100.00;97331.72;5381828;26;20004;-62
2024/04/21 08:29:06;;;;;;;5.95;1.60;;;;;;;3.63;100.00;97334.59;5392028;26;20007;-62
2024/04/21 08:31:32;;;;;;;4.03;1.42;;;;;;;3.69;100.00;97335.59;5368087;26;20684;-62
2024/04/21 08:33:59;;;;;;;8.02;2.05;;;;;;;3.71;100.00;97335.38;5376121;26;20130;-62
2024/04/21 08:36:26;;;;;;;5.15;1.67;;;;;;;3.47;100.00;97337.69;5361518;26;20004;-62
2024/04/21 08:38:53;;;;;;;5.45;1.25;;;;;;;3.51;100.00;97339.75;5386836;26;20011;-62
2024/04/21 08:41:22;;;;;;;8.90;1.75;;;;;;;3.27;100.00;97343.06;5386040;26;20016;-62
2024/04/21 08:43:49;;;;;;;4.13;1.50;;;;;;;3.24;100.00;97339.75;5373999;26;20024;-62
2024/04/21 08:46:16;;;;;;;10.73;1.85;;;;;;;3.29;100.00;97343.66;5367580;26;20056;-62
2024/04/21 08:48:43;;;;;;;4.70;1.33;;;;;;;3.31;100.00;97342.44;5384325;26;20024;-62
2024/04/21 08:51:10;;;;;;;6.03;1.70;;;;;;;3.39;100.00;97346.75;5372983;26;20000;-62
2024/04/21 08:53:39;;;;;;;6.20;1.70;;;;;;;3.41;100.00;97346.53;5384426;26;20004;-62
2024/04/21 08:56:16;;;;;;;9.70;2.13;;;;;;;3.55;100.00;97348.19;5385217;26;20089;-62
2024/04/21 08:58:46;;;;;;;3.13;1.50;;;;;;;3.54;100.00;97354.56;5386992;26;20005;-62
2024/04/21 09:01:13;;;;;;;4.88;1.75;;;;;;;3.79;100.00;97351.25;5376265;26;20028;-62
2024/04/21 09:03:41;;;;;;;3.97;1.48;;;;;;;3.95;100.00;97343.81;5351027;26;20601;-62
2024/04/21 09:06:09;;;;;;;4.80;1.73;;;;;;;3.96;100.00;97348.13;5372106;26;20011;-62
2024/04/21 09:08:35;;;;;;;8.95;1.77;;;;;;;4.06;100.00;97342.34;5383723;26;20103;-62
2024/04/21 09:11:02;;;;;;;8.05;1.58;;;;;;;4.10;100.00;97338.19;5398953;26;19999;-62
2024/04/21 09:13:29;;;;;;;7.97;2.10;;;;;;;4.01;100.00;97332.22;5361919;26;20022;-62
2024/04/21 09:15:56;;;;;;;6.53;1.75;;;;;;;4.05;100.00;97338.00;5365388;26;20758;-62
2024/04/21 09:18:22;;;;;;;5.50;1.52;;;;;;;4.47;100.00;97332.28;5377610;26;20019;-62
2024/04/21 09:20:49;;;;;;;4.40;1.10;;;;;;;4.93;100.00;97325.84;5377871;26;20015;-62
2024/04/21 09:23:16;;;;;;;9.60;1.48;;;;;;;5.51;100.00;97325.81;5381166;26;20083;-63
2024/04/21 09:25:42;;;;;;;5.35;1.08;;;;;;;5.49;100.00;97325.19;5372422;26;20019;-62
2024/04/21 09:28:09;;;;;;;7.03;1.60;;;;;;;5.53;100.00;97331.78;5384162;26;20011;-62
2024/04/21 09:30:36;;;;;;;4.18;1.48;;;;;;;5.47;100.00;97341.56;5355111;26;20023;-62
2024/04/21 09:33:04;;;;;;;5.40;1.98;;;;;;;5.17;100.00;97336.81;5370048;26;20000;-62
2024/04/21 09:35:30;;;;;;;4.85;1.60;;;;;;;5.04;100.00;97337.72;5368918;26;20008;-62
2024/04/21 09:37:57;;;;;;;3.35;1.33;;;;;;;4.91;100.00;97345.88;5380288;26;20019;-62
2024/04/21 09:40:24;;;;;;;5.10;1.45;;;;;;;5.06;100.00;97349.06;5377724;26;20012;-62
2024/04/21 09:42:53;;;;;;;7.32;1.27;;;;;;;4.98;100.00;97343.16;5368823;26;20028;-62
2024/04/21 09:45:22;;;;;;;7.47;1.80;;;;;;;4.91;100.00;97356.59;5342722;26;20086;-62
2024/04/21 09:47:52;;;;;;;8.02;2.45;;;;;;;4.61;100.00;97349.94;5381091;26;20079;-62
2024/04/21 09:50:20;;;;;;;4.18;1.30;;;;;;;4.83;100.00;97341.56;5382721;26;20015;-62
2024/04/21 09:52:49;;;;;;;7.43;1.95;;;;;;;5.12;100.00;97343.88;5368104;26;20074;-63
2024/04/21 09:55:18;;;;;;;3.70;1.17;;;;;;;5.37;100.00;97346.56;5387564;26;20786;-63
2024/04/21 09:57:55;;;;;;;5.30;1.88;;;;;;;5.78;100.00;97340.88;5369176;26;20023;-62
2024/04/21 10:00:23;;;;;;;7.78;2.00;;;;;;;5.43;100.00;97336.81;5381372;26;20419;-63
2024/04/21 10:02:52;;;;;;;7.28;1.80;;;;;;;5.29;100.00;97341.47;5371155;26;20015;-62
2024/04/21 10:05:24;;;;;;;7.47;1.75;;;;;;;5.67;100.00;97334.31;5367243;26;20005;-63
2024/04/21 10:07:51;;;;;;;4.90;1.58;;;;;;;6.28;100.00;97336.44;5382889;26;20007;-63
2024/04/21 10:10:21;;;;;;;7.45;1.45;;;;;;;6.24;100.00;97328.00;5374620;26;20008;-62
2024/04/21 10:12:49;;;;;;;5.32;1.27;;;;;;;6.29;100.00;97327.31;5365728;26;20040;-62
2024/04/21 10:15:20;;;;;;;5.68;1.42;;;;;;;5.36;100.00;97328.00;5365462;26;20019;-62
2024/04/21 10:17:57;;;;;;;;;;;;;;;5.40;100.00;97321.16;5368723;26;20001;-62
2024/04/21 10:20:31;;;;;;;4.70;1.70;;;;;;;5.44;100.00;97325.88;5366728;26;19933;-62
2024/04/21 10:23:03;;;;;;;6.95;1.70;;;;;;;5.26;100.00;97321.25;5373758;26;20003;-62
2024/04/21 10:25:37;;;;;;;5.03;1.52;;;;;;;5.27;100.00;97330.16;5363259;26;20012;-62
2024/04/21 10:28:24;;;;;;;5.75;1.77;;;;;;;5.40;100.00;97330.03;5357517;26;20008;-62
2024/04/21 10:30:51;;;;;;;5.38;1.75;;;;;;;5.36;100.00;97326.16;5368893;26;20018;-62
2024/04/21 10:33:27;;;;;;;8.15;1.75;;;;;;;5.68;100.00;97325.25;5369803;26;20019;-62
2024/04/21 10:35:54;;;;;;;8.27;1.70;;;;;;;5.49;100.00;97322.50;5374498;26;20016;-62
2024/04/21 10:38:20;;;;;;;5.25;1.30;;;;;;;5.67;100.00;97324.41;5361542;26;20806;-62
2024/04/21 10:40:48;;;;;;;3.72;1.63;;;;;;;5.89;100.00;97307.06;5372035;26;20008;-62
2024/04/21 10:43:16;;;;;;;5.07;1.40;;;;;;;6.06;100.00;97308.16;5362007;26;20188;-63
2024/04/21 10:45:44;;;;;;;5.68;2.22;;;;;;;6.37;100.00;97302.78;5370243;26;20531;-62
2024/04/21 10:48:10;;;;;;;2.65;1.50;;;;;;;6.42;100.00;97310.19;5374610;26;20010;-63
2024/04/21 10:50:39;;;;;;;5.38;2.40;;;;;;;6.29;100.00;97311.16;5378471;26;20004;-63
2024/04/21 10:53:07;;;;;;;4.28;1.83;;;;;;;6.43;100.00;97303.75;5368183;26;20015;-62
2024/04/21 10:55:35;;;;;;;4.88;2.42;;;;;;;6.34;100.00;97308.66;5341913;26;20066;-62
2024/04/21 10:58:06;;;;;;;5.35;2.03;;;;;;;6.14;100.00;97314.25;5367998;26;20008;-62
2024/04/21 11:00:37;;;;;;;3.60;1.30;;;;;;;5.46;100.00;97320.28;5368821;26;20008;-62
2024/04/21 11:03:05;;;;;;;4.43;1.42;;;;;;;5.27;100.00;97322.91;5378193;26;20003;-63
2024/04/21 11:05:41;;;;;;;2.35;1.00;;;;;;;5.62;100.00;97315.38;5368889;26;20008;-62
2024/04/21 11:08:08;;;;;;;4.00;1.05;;;;;;;5.55;100.00;97313.59;5381440;26;20016;-62
2024/04/21 11:10:35;;;;;;;6.07;1.08;;;;;;;5.65;100.00;97310.41;5374620;26;20119;-62
2024/04/21 11:13:05;;;;;;;4.13;1.83;;;;;;;5.93;100.00;97302.88;5380593;26;20000;-62
2024/04/21 11:15:39;;;;;;;6.47;1.35;;;;;;;6.26;100.00;97293.63;5368835;26;20015;-62
2024/04/21 11:18:05;;;;;;;2.95;1.20;;;;;;;6.89;100.00;97307.69;5385455;26;20018;-62
2024/04/21 11:20:32;;;;;;;4.22;1.25;;;;;;;7.05;92.63;97310.78;5371349;26;20004;-63
2024/04/21 11:22:59;;;;;;;4.35;1.85;;;;;;;6.93;100.00;97305.34;5367616;26;20023;-62
2024/04/21 11:25:26;;;;;;;3.03;0.98;;;;;;;6.73;100.00;97319.94;5370149;26;20004;-63
2024/04/21 11:27:53;;;;;;;4.20;1.27;;;;;;;6.43;100.00;97315.34;5338060;26;20008;-63
2024/04/21 11:30:21;;;;;;;6.05;1.40;;;;;;;6.34;100.00;97316.72;5381204;26;20004;-62
2024/04/21 11:32:48;;;;;;;5.25;1.00;;;;;;;5.42;100.00;97308.34;5364073;26;20011;-62
2024/04/21 11:35:17;;;;;;;3.63;1.15;;;;;;;5.44;100.00;97315.13;5380783;26;20004;-63